createdAt,value
2019-05-18T00:00:31.864Z,11.8
2019-05-18T00:01:30.797Z,11.8
2019-05-18T00:02:30.849Z,11.8
2019-05-18T00:03:30.913Z,11.9
2019-05-18T00:04:30.988Z,11.8
2019-05-18T00:05:31.039Z,11.9
2019-05-18T00:06:31.357Z,11.9
2019-05-18T00:07:31.128Z,11.9
2019-05-18T00:08:31.200Z,11.8
2019-05-18T00:09:31.252Z,11.8
2019-05-18T00:10:31.726Z,11.8
2019-05-18T00:11:31.380Z,11.8
2019-05-18T00:12:32.288Z,11.6
2019-05-18T00:13:31.451Z,11.6
2019-05-18T00:14:31.499Z,11.7
2019-05-18T00:15:31.582Z,11.7
2019-05-18T00:16:31.610Z,11.5
2019-05-18T00:17:31.705Z,11.4
2019-05-18T00:18:31.739Z,11.3
2019-05-18T00:19:31.801Z,11.3
2019-05-18T00:20:31.915Z,11.3
2019-05-18T00:21:31.969Z,11.2
2019-05-18T00:22:31.989Z,11.4
2019-05-18T00:23:32.141Z,11.5
2019-05-18T00:24:32.100Z,11.6
2019-05-18T00:25:32.232Z,11.6
2019-05-18T00:26:34.577Z,11.7
2019-05-18T00:27:32.599Z,11.6
2019-05-18T00:28:33.220Z,11.6
2019-05-18T00:29:32.712Z,11.5
2019-05-18T00:30:33.751Z,11.5
2019-05-18T00:31:32.510Z,11.5
2019-05-18T00:32:35.425Z,11.4
2019-05-18T00:33:32.630Z,11.5
2019-05-18T00:34:33.947Z,11.3
2019-05-18T00:35:33.193Z,11.3
2019-05-18T00:36:34.180Z,11.3
2019-05-18T00:37:33.018Z,11.2
2019-05-18T00:38:33.549Z,11.2
2019-05-18T00:39:33.660Z,11.1
2019-05-18T00:40:33.619Z,11.3
2019-05-18T00:41:33.075Z,11.3
2019-05-18T00:42:33.912Z,11.4
2019-05-18T00:43:33.149Z,11.5
2019-05-18T00:44:33.199Z,11.5
2019-05-18T00:45:33.292Z,11.6
2019-05-18T00:46:33.475Z,11.6
2019-05-18T00:47:41.169Z,11.6
2019-05-18T00:48:33.653Z,11.6
2019-05-18T00:49:33.489Z,11.6
2019-05-18T00:50:33.557Z,11.6
2019-05-18T00:51:33.682Z,11.6
2019-05-18T00:52:33.830Z,11.3
2019-05-18T00:53:33.733Z,11.3
2019-05-18T00:54:34.424Z,11.2
2019-05-18T00:55:33.828Z,11.2
2019-05-18T00:56:33.922Z,11.2
2019-05-18T00:57:33.992Z,11.2
2019-05-18T00:58:34.251Z,11.2
2019-05-18T00:59:34.047Z,11.1
2019-05-18T01:00:34.259Z,11.1
2019-05-18T01:01:34.195Z,11.2
2019-05-18T01:02:34.255Z,11.3
2019-05-18T01:03:34.281Z,11.3
2019-05-18T01:04:34.337Z,11.4
2019-05-18T01:05:37.432Z,11.4
2019-05-18T01:06:34.490Z,11.4
2019-05-18T01:07:34.554Z,11.4
2019-05-18T01:08:34.586Z,11.4
2019-05-18T01:09:34.659Z,11.4
2019-05-18T01:10:34.701Z,11.4
2019-05-18T01:11:34.788Z,11.4
2019-05-18T01:12:34.821Z,11.4
2019-05-18T01:13:34.913Z,11.3
2019-05-18T01:14:34.942Z,11.2
2019-05-18T01:15:34.970Z,11.2
2019-05-18T01:16:35.011Z,11.1
2019-05-18T01:17:35.099Z,11.1
2019-05-18T01:18:35.144Z,11.1
2019-05-18T01:19:35.155Z,11.1
2019-05-18T01:20:35.307Z,11.1
2019-05-18T01:21:35.316Z,10.9
2019-05-18T01:22:35.392Z,10.8
2019-05-18T01:23:35.479Z,10.9
2019-05-18T01:24:35.466Z,10.9
2019-05-18T01:25:35.530Z,10.9
2019-05-18T01:26:35.592Z,10.9
2019-05-18T01:27:35.642Z,11
2019-05-18T01:28:35.737Z,11
2019-05-18T01:29:35.806Z,10.8
2019-05-18T01:30:35.870Z,10.9
2019-05-18T01:31:35.916Z,11
2019-05-18T01:32:35.951Z,11.1
2019-05-18T01:33:36.003Z,11
2019-05-18T01:34:36.079Z,10.9
2019-05-18T01:35:36.104Z,10.9
2019-05-18T01:36:36.265Z,10.9
2019-05-18T01:37:36.232Z,10.8
2019-05-18T01:38:36.255Z,10.8
2019-05-18T01:39:36.293Z,10.9
2019-05-18T01:40:36.354Z,10.9
2019-05-18T01:41:36.559Z,10.8
2019-05-18T01:42:36.522Z,10.8
2019-05-18T01:43:36.555Z,10.7
2019-05-18T01:44:36.778Z,10.6
2019-05-18T01:45:36.669Z,10.7
2019-05-18T01:46:36.702Z,10.8
2019-05-18T01:47:36.788Z,10.9
2019-05-18T01:48:36.795Z,11
2019-05-18T01:49:36.871Z,11
2019-05-18T01:50:36.927Z,11
2019-05-18T01:51:36.953Z,10.9
2019-05-18T01:52:37.005Z,10.8
2019-05-18T01:53:37.093Z,10.7
2019-05-18T01:54:37.168Z,10.7
2019-05-18T01:55:37.254Z,10.8
2019-05-18T01:56:37.381Z,10.9
2019-05-18T01:57:37.326Z,11
2019-05-18T01:58:37.375Z,10.9
2019-05-18T01:59:37.447Z,10.8
2019-05-18T02:00:37.571Z,10.7
2019-05-18T02:01:37.563Z,10.6
2019-05-18T02:02:37.654Z,10.6
2019-05-18T02:03:37.697Z,10.7
2019-05-18T02:04:37.705Z,10.6
2019-05-18T02:05:37.834Z,10.7
2019-05-18T02:06:37.875Z,10.7
2019-05-18T02:07:37.941Z,10.7
2019-05-18T02:08:38.289Z,10.8
2019-05-18T02:09:38.037Z,10.7
2019-05-18T02:10:38.208Z,10.9
2019-05-18T02:11:38.321Z,10.9
2019-05-18T02:12:38.917Z,10.9
2019-05-18T02:13:38.416Z,10.9
2019-05-18T02:14:38.290Z,10.9
2019-05-18T02:15:38.392Z,10.9
2019-05-18T02:16:38.504Z,10.9
2019-05-18T02:17:38.451Z,10.9
2019-05-18T02:18:39.125Z,10.9
2019-05-18T02:19:38.625Z,10.9
2019-05-18T02:20:38.656Z,10.9
2019-05-18T02:21:38.748Z,10.9
2019-05-18T02:22:38.764Z,10.9
2019-05-18T02:23:38.812Z,10.9
2019-05-18T02:24:38.877Z,10.8
2019-05-18T02:25:38.986Z,10.8
2019-05-18T02:26:38.973Z,10.7
2019-05-18T02:27:39.056Z,10.7
2019-05-18T02:28:39.290Z,10.8
2019-05-18T02:29:39.160Z,10.8
2019-05-18T02:30:39.815Z,10.8
2019-05-18T02:31:39.255Z,10.9
2019-05-18T02:32:39.286Z,10.9
2019-05-18T02:33:39.353Z,10.8
2019-05-18T02:34:39.857Z,10.8
2019-05-18T02:35:41.573Z,11
2019-05-18T02:36:39.858Z,11
2019-05-18T02:37:39.588Z,11
2019-05-18T02:38:40.200Z,11
2019-05-18T02:39:39.678Z,11
2019-05-18T02:41:40.193Z,11
2019-05-18T02:42:39.982Z,11
2019-05-18T02:43:40.327Z,11
2019-05-18T02:44:40.176Z,10.9
2019-05-18T02:45:40.056Z,10.8
2019-05-18T02:46:40.179Z,10.8
2019-05-18T02:47:40.178Z,10.8
2019-05-18T02:48:49.165Z,10.8
2019-05-18T02:49:40.311Z,10.8
2019-05-18T02:50:41.064Z,10.8
2019-05-18T02:51:40.407Z,10.8
2019-05-18T02:52:40.463Z,10.8
2019-05-18T02:53:40.586Z,10.8
2019-05-18T02:54:40.628Z,11
2019-05-18T02:55:40.653Z,11
2019-05-18T02:56:40.656Z,11
2019-05-18T02:57:40.731Z,11
2019-05-18T02:58:40.812Z,11
2019-05-18T02:59:40.849Z,11
2019-05-18T03:00:40.905Z,11
2019-05-18T03:01:40.974Z,10.9
2019-05-18T03:02:41.021Z,10.8
2019-05-18T03:03:41.102Z,10.8
2019-05-18T03:04:41.170Z,10.8
2019-05-18T03:05:41.201Z,10.8
2019-05-18T03:06:57.788Z,10.9
2019-05-18T03:07:41.308Z,11
2019-05-18T03:08:41.401Z,11
2019-05-18T03:09:41.462Z,11
2019-05-18T03:10:41.497Z,11
2019-05-18T03:11:41.582Z,11.1
2019-05-18T03:12:41.602Z,11.1
2019-05-18T03:13:41.701Z,11
2019-05-18T03:14:41.775Z,11.1
2019-05-18T03:15:41.797Z,11.1
2019-05-18T03:16:41.884Z,11.1
2019-05-18T03:17:41.883Z,11
2019-05-18T03:18:41.997Z,11.1
2019-05-18T03:19:42.052Z,11.2
2019-05-18T03:20:42.157Z,11.2
2019-05-18T03:21:42.165Z,11.2
2019-05-18T03:22:42.205Z,11.2
2019-05-18T03:23:42.262Z,11.3
2019-05-18T03:24:42.311Z,11.3
2019-05-18T03:25:42.360Z,11.3
2019-05-18T03:26:42.394Z,11.3
2019-05-18T03:27:42.481Z,11.2
2019-05-18T03:28:42.514Z,11.2
2019-05-18T03:29:42.806Z,11.3
2019-05-18T03:30:42.850Z,11.2
2019-05-18T03:31:42.677Z,11.2
2019-05-18T03:32:42.922Z,11.3
2019-05-18T03:33:42.907Z,11.4
2019-05-18T03:34:43.145Z,11.3
2019-05-18T03:35:42.940Z,11.3
2019-05-18T03:37:15.943Z,11.2
2019-05-18T03:37:43.009Z,11.1
2019-05-18T03:38:43.065Z,11.1
2019-05-18T03:39:43.129Z,11.2
2019-05-18T03:40:43.203Z,11.3
2019-05-18T03:41:43.268Z,11.3
2019-05-18T03:42:43.338Z,11.2
2019-05-18T03:43:43.402Z,11.1
2019-05-18T03:44:43.537Z,11.1
2019-05-18T03:45:43.539Z,11.1
2019-05-18T03:46:43.646Z,11.2
2019-05-18T03:47:43.644Z,11.2
2019-05-18T03:48:43.735Z,11.1
2019-05-18T03:49:43.801Z,11.1
2019-05-18T03:50:43.870Z,11.2
2019-05-18T03:51:43.933Z,11.2
2019-05-18T03:52:43.958Z,11.2
2019-05-18T03:53:44.015Z,11.2
2019-05-18T03:54:44.064Z,11.1
2019-05-18T03:55:44.164Z,11.2
2019-05-18T03:56:44.221Z,11.2
2019-05-18T03:57:44.241Z,11.3
2019-05-18T03:58:44.334Z,11.2
2019-05-18T03:59:44.396Z,11.2
2019-05-18T04:00:44.437Z,11.1
2019-05-18T04:01:44.483Z,11.1
2019-05-18T04:02:44.612Z,11.1
2019-05-18T04:03:44.662Z,11.2
2019-05-18T04:04:44.664Z,11.2
2019-05-18T04:05:44.808Z,11.2
2019-05-18T04:07:17.668Z,11.2
2019-05-18T04:07:44.868Z,11.1
2019-05-18T04:08:44.903Z,11.2
2019-05-18T04:09:44.973Z,11.1
2019-05-18T04:10:45.031Z,11.1
2019-05-18T04:11:45.102Z,11
2019-05-18T04:12:45.142Z,11
2019-05-18T04:13:45.225Z,11
2019-05-18T04:14:45.263Z,11
2019-05-18T04:15:45.308Z,11
2019-05-18T04:16:45.435Z,11.1
2019-05-18T04:17:45.411Z,11.1
2019-05-18T04:18:45.476Z,11.2
2019-05-18T04:19:47.431Z,11.2
2019-05-18T04:20:45.652Z,11.2
2019-05-18T04:21:45.670Z,11.1
2019-05-18T04:22:45.684Z,11.2
2019-05-18T04:23:45.759Z,11.3
2019-05-18T04:24:45.819Z,11.2
2019-05-18T04:25:45.906Z,11.2
2019-05-18T04:26:45.911Z,11.2
2019-05-18T04:27:45.970Z,11.2
2019-05-18T04:28:46.059Z,11.3
2019-05-18T04:29:46.117Z,11.4
2019-05-18T04:30:46.262Z,11.2
2019-05-18T04:31:46.228Z,11.3
2019-05-18T04:32:46.321Z,11.4
2019-05-18T04:33:46.359Z,11.3
2019-05-18T04:34:46.427Z,11.2
2019-05-18T04:35:46.517Z,11.1
2019-05-18T04:36:46.521Z,11.1
2019-05-18T04:37:46.600Z,11.1
2019-05-18T04:38:46.669Z,11.1
2019-05-18T04:39:46.704Z,11.2
2019-05-18T04:40:46.747Z,11.2
2019-05-18T04:41:46.836Z,11.1
2019-05-18T04:42:46.904Z,11.2
2019-05-18T04:43:46.928Z,11.2
2019-05-18T04:44:47.072Z,11.2
2019-05-18T04:45:47.100Z,11.3
2019-05-18T04:46:47.137Z,11.3
2019-05-18T04:47:48.585Z,11.3
2019-05-18T04:48:47.263Z,11.2
2019-05-18T04:50:03.792Z,11.3
2019-05-18T04:50:47.411Z,11.3
2019-05-18T04:51:47.459Z,11.4
2019-05-18T04:52:47.550Z,11.4
2019-05-18T04:53:47.571Z,11.5
2019-05-18T04:54:47.599Z,11.6
2019-05-18T04:55:47.703Z,11.6
2019-05-18T04:56:47.710Z,11.6
2019-05-18T04:57:47.780Z,11.6
2019-05-18T04:58:47.840Z,11.4
2019-05-18T04:59:47.884Z,11.3
2019-05-18T05:00:47.969Z,11.3
2019-05-18T05:01:47.996Z,11.4
2019-05-18T05:02:48.064Z,11.3
2019-05-18T05:03:48.093Z,11.3
2019-05-18T05:04:51.409Z,11.3
2019-05-18T05:05:48.225Z,11.3
2019-05-18T05:06:48.265Z,11.3
2019-05-18T05:07:48.345Z,11.3
2019-05-18T05:08:48.371Z,11.3
2019-05-18T05:09:48.443Z,11.3
2019-05-18T05:10:48.494Z,11.3
2019-05-18T05:11:48.571Z,11.3
2019-05-18T05:12:48.586Z,11.3
2019-05-18T05:13:48.665Z,11.3
2019-05-18T05:14:48.726Z,11.3
2019-05-18T05:15:48.788Z,11.3
2019-05-18T05:16:48.789Z,11.3
2019-05-18T05:17:48.856Z,11.4
2019-05-18T05:18:48.915Z,11.3
2019-05-18T05:19:48.967Z,11.5
2019-05-18T05:20:49.074Z,11.4
2019-05-18T05:21:49.343Z,11.4
2019-05-18T05:22:49.128Z,11.5
2019-05-18T05:23:49.217Z,11.6
2019-05-18T05:24:49.605Z,11.7
2019-05-18T05:25:49.340Z,11.6
2019-05-18T05:26:49.350Z,11.7
2019-05-18T05:27:49.476Z,11.6
2019-05-18T05:28:49.567Z,11.6
2019-05-18T05:29:49.514Z,11.6
2019-05-18T05:30:49.663Z,11.7
2019-05-18T05:31:49.722Z,11.8
2019-05-18T05:32:49.677Z,11.8
2019-05-18T05:33:49.797Z,11.8
2019-05-18T05:34:49.809Z,11.7
2019-05-18T05:35:49.881Z,11.8
2019-05-18T05:36:49.937Z,11.7
2019-05-18T05:37:50.003Z,11.8
2019-05-18T05:38:50.055Z,11.9
2019-05-18T05:39:50.159Z,11.9
2019-05-18T05:40:50.176Z,11.8
2019-05-18T05:41:50.203Z,28
2019-05-18T05:42:50.263Z,11.8
2019-05-18T05:43:50.303Z,11.8
2019-05-18T05:44:50.498Z,11.9
2019-05-18T05:45:50.436Z,12
2019-05-18T05:46:50.466Z,12
2019-05-18T05:47:50.538Z,12
2019-05-18T05:48:54.204Z,11.9
2019-05-18T05:49:50.605Z,11.8
2019-05-18T05:50:50.667Z,11.8
2019-05-18T05:51:50.960Z,11.9
2019-05-18T05:52:50.767Z,11.9
2019-05-18T05:53:50.830Z,11.9
2019-05-18T05:54:50.909Z,11.7
2019-05-18T05:55:50.979Z,11.8
2019-05-18T05:56:50.979Z,11.8
2019-05-18T05:57:51.056Z,11.8
2019-05-18T05:58:51.150Z,11.9
2019-05-18T05:59:51.157Z,12
2019-05-18T06:00:51.259Z,12
2019-05-18T06:01:51.307Z,12
2019-05-18T06:02:51.400Z,12
2019-05-18T06:03:52.814Z,11.9
2019-05-18T06:04:51.549Z,11.9
2019-05-18T06:05:51.598Z,12
2019-05-18T06:06:51.732Z,12
2019-05-18T06:07:51.708Z,12
2019-05-18T06:08:51.740Z,12
2019-05-18T06:09:51.887Z,12
2019-05-18T06:10:51.856Z,12.1
2019-05-18T06:11:51.927Z,12
2019-05-18T06:12:51.962Z,12
2019-05-18T06:13:52.037Z,12
2019-05-18T06:14:52.106Z,12.1
2019-05-18T06:15:52.163Z,12.1
2019-05-18T06:16:52.217Z,12.2
2019-05-18T06:17:52.287Z,12.1
2019-05-18T06:18:52.329Z,12.1
2019-05-18T06:19:52.655Z,12.1
2019-05-18T06:20:52.470Z,12.1
2019-05-18T06:21:56.496Z,12.1
2019-05-18T06:22:52.603Z,12.3
2019-05-18T06:23:52.609Z,12.3
2019-05-18T06:24:52.699Z,12.3
2019-05-18T06:25:52.737Z,12.2
2019-05-18T06:26:52.824Z,12.2
2019-05-18T06:27:52.838Z,12.3
2019-05-18T06:28:52.899Z,12.4
2019-05-18T06:29:52.987Z,12.4
2019-05-18T06:30:53.061Z,12.5
2019-05-18T06:31:53.112Z,12.6
2019-05-18T06:32:53.201Z,12.5
2019-05-18T06:33:53.264Z,12.5
2019-05-18T06:34:53.336Z,12.6
2019-05-18T06:35:53.414Z,12.6
2019-05-18T06:36:55.885Z,12.6
2019-05-18T06:37:53.536Z,12.5
2019-05-18T06:38:53.613Z,12.5
2019-05-18T06:39:53.616Z,12.5
2019-05-18T06:40:53.709Z,12.5
2019-05-18T06:41:53.781Z,12.5
2019-05-18T06:42:53.824Z,12.5
2019-05-18T06:43:53.862Z,12.5
2019-05-18T06:44:53.969Z,12.4
2019-05-18T06:45:53.951Z,12.5
2019-05-18T06:46:53.966Z,12.5
2019-05-18T06:47:54.071Z,12.6
2019-05-18T06:48:54.125Z,12.5
2019-05-18T06:49:54.171Z,12.5
2019-05-18T06:51:06.199Z,12.5
2019-05-18T06:51:54.263Z,12.6
2019-05-18T06:52:54.308Z,12.6
2019-05-18T06:53:54.384Z,12.6
2019-05-18T06:54:54.471Z,12.7
2019-05-18T06:55:54.505Z,12.7
2019-05-18T06:56:54.588Z,12.7
2019-05-18T06:57:56.622Z,12.8
2019-05-18T06:58:54.696Z,12.7
2019-05-18T06:59:54.765Z,12.7
2019-05-18T07:00:54.782Z,12.7
2019-05-18T07:01:54.821Z,12.7
2019-05-18T07:02:54.892Z,12.7
2019-05-18T07:03:54.940Z,12.8
2019-05-18T07:04:54.998Z,12.9
2019-05-18T07:05:55.088Z,13
2019-05-18T07:06:55.129Z,13
2019-05-18T07:07:55.107Z,13.1
2019-05-18T07:08:55.190Z,13.1
2019-05-18T07:09:55.261Z,13.1
2019-05-18T07:10:55.296Z,13.1
2019-05-18T07:11:56.166Z,13.2
2019-05-18T07:12:55.489Z,13.2
2019-05-18T07:13:55.432Z,13.3
2019-05-18T07:14:55.518Z,13.4
2019-05-18T07:15:55.662Z,13.4
2019-05-18T07:16:55.667Z,13.4
2019-05-18T07:17:55.710Z,13.5
2019-05-18T07:18:55.796Z,13.6
2019-05-18T07:19:55.850Z,13.5
2019-05-18T07:20:55.919Z,13.5
2019-05-18T07:21:55.934Z,13.6
2019-05-18T07:22:56.032Z,13.6
2019-05-18T07:23:56.070Z,13.6
2019-05-18T07:24:56.142Z,13.7
2019-05-18T07:25:56.240Z,13.7
2019-05-18T07:26:56.239Z,13.8
2019-05-18T07:27:56.322Z,13.8
2019-05-18T07:28:56.398Z,13.9
2019-05-18T07:29:56.456Z,13.9
2019-05-18T07:30:56.506Z,13.9
2019-05-18T07:31:56.541Z,13.9
2019-05-18T07:32:56.695Z,13.9
2019-05-18T07:33:56.686Z,13.9
2019-05-18T07:34:56.733Z,14
2019-05-18T07:35:56.784Z,14
2019-05-18T07:36:56.806Z,14
2019-05-18T07:37:56.855Z,14.1
2019-05-18T07:38:56.899Z,14.1
2019-05-18T07:39:56.966Z,14.1
2019-05-18T07:40:57.057Z,14.1
2019-05-18T07:41:57.083Z,14.4
2019-05-18T07:42:57.162Z,14.8
2019-05-18T07:43:57.203Z,14.9
2019-05-18T07:44:57.241Z,15
2019-05-18T07:45:57.280Z,15.1
2019-05-18T07:46:57.368Z,15.1
2019-05-18T07:47:57.386Z,15
2019-05-18T07:48:57.442Z,15
2019-05-18T07:49:57.530Z,14.9
2019-05-18T07:50:57.562Z,14.9
2019-05-18T07:51:57.790Z,14.8
2019-05-18T07:52:57.674Z,14.8
2019-05-18T07:53:57.722Z,15
2019-05-18T07:54:57.822Z,15.1
2019-05-18T07:55:57.862Z,15.2
2019-05-18T07:56:57.926Z,15.2
2019-05-18T07:57:58.013Z,15.3
2019-05-18T07:58:58.073Z,15.4
2019-05-18T07:59:58.092Z,15.4
2019-05-18T08:00:58.141Z,15.3
2019-05-18T08:01:58.282Z,15.2
2019-05-18T08:02:58.321Z,15.1
2019-05-18T08:03:58.426Z,15
2019-05-18T08:04:58.441Z,15
2019-05-18T08:05:58.695Z,15.1
2019-05-18T08:06:58.562Z,15.2
2019-05-18T08:07:58.559Z,15.1
2019-05-18T08:08:58.719Z,15.3
2019-05-18T08:09:58.716Z,15.2
2019-05-18T08:10:58.851Z,15.2
2019-05-18T08:11:58.840Z,15.1
2019-05-18T08:12:58.894Z,15.3
2019-05-18T08:13:58.907Z,15.3
2019-05-18T08:14:59.044Z,15.3
2019-05-18T08:15:59.114Z,15.3
2019-05-18T08:16:59.221Z,15.4
2019-05-18T08:17:59.139Z,15.4
2019-05-18T08:18:59.185Z,15.3
2019-05-18T08:19:59.200Z,15.3
2019-05-18T08:20:59.218Z,15.2
2019-05-18T08:21:59.305Z,15.1
2019-05-18T08:22:59.358Z,15.1
2019-05-18T08:23:59.371Z,15.1
2019-05-18T08:24:59.453Z,15.2
2019-05-18T08:25:59.510Z,15.3
2019-05-18T08:27:02.086Z,15.3
2019-05-18T08:27:59.625Z,15.3
2019-05-18T08:28:59.686Z,15.3
2019-05-18T08:29:59.804Z,15.3
2019-05-18T08:30:59.835Z,15.4
2019-05-18T08:31:59.791Z,15.4
2019-05-18T08:32:59.902Z,15.5
2019-05-18T08:33:59.923Z,15.5
2019-05-18T08:35:00.129Z,15.5
2019-05-18T08:36:00.079Z,15.4
2019-05-18T08:37:01.733Z,15.4
2019-05-18T08:38:00.495Z,15.5
2019-05-18T08:39:00.547Z,15.6
2019-05-18T08:40:00.526Z,15.7
2019-05-18T08:41:00.516Z,15.7
2019-05-18T08:42:00.552Z,15.7
2019-05-18T08:43:00.562Z,15.8
2019-05-18T08:44:00.621Z,15.9
2019-05-18T08:45:00.609Z,15.9
2019-05-18T08:46:00.544Z,16.1
2019-05-18T08:47:00.595Z,16.3
2019-05-18T08:48:00.622Z,16.3
2019-05-18T08:49:00.707Z,16.4
2019-05-18T08:50:00.723Z,16.5
2019-05-18T08:51:00.792Z,16.6
2019-05-18T08:52:08.069Z,16.5
2019-05-18T08:53:00.858Z,16.6
2019-05-18T08:54:00.950Z,16.6
2019-05-18T08:55:01.015Z,16.5
2019-05-18T08:56:01.066Z,16.6
2019-05-18T08:57:01.714Z,16.7
2019-05-18T08:58:01.191Z,16.8
2019-05-18T08:59:01.256Z,16.7
2019-05-18T09:00:01.331Z,16.9
2019-05-18T09:01:01.353Z,17
2019-05-18T09:02:01.437Z,24.6
2019-05-18T09:03:01.450Z,17.1
2019-05-18T09:04:01.501Z,17.2
2019-05-18T09:05:04.743Z,17.2
2019-05-18T09:06:01.656Z,17.3
2019-05-18T09:07:01.701Z,24.8
2019-05-18T09:08:01.763Z,17.4
2019-05-18T09:09:01.819Z,17.6
2019-05-18T09:10:01.904Z,17.5
2019-05-18T09:11:01.931Z,17.6
2019-05-18T09:12:02.008Z,17.7
2019-05-18T09:13:02.122Z,40.1
2019-05-18T09:14:02.135Z,17.8
2019-05-18T09:15:02.234Z,18.2
2019-05-18T09:16:02.200Z,18.5
2019-05-18T09:17:02.266Z,18.3
2019-05-18T09:18:04.820Z,18.2
2019-05-18T09:19:02.421Z,18.2
2019-05-18T09:20:02.396Z,18.4
2019-05-18T09:21:02.504Z,18.6
2019-05-18T09:22:02.541Z,18.8
2019-05-18T09:23:02.596Z,18.8
2019-05-18T09:24:02.627Z,18.5
2019-05-18T09:25:02.712Z,18.7
2019-05-18T09:26:02.756Z,18.8
2019-05-18T09:27:02.913Z,19
2019-05-18T09:28:02.840Z,19.3
2019-05-18T09:29:02.934Z,19.5
2019-05-18T09:30:03.173Z,19.2
2019-05-18T09:31:03.049Z,19
2019-05-18T09:32:03.110Z,18.9
2019-05-18T09:33:03.142Z,18.8
2019-05-18T09:34:03.203Z,18.5
2019-05-18T09:35:03.256Z,18.1
2019-05-18T09:36:03.364Z,18.1
2019-05-18T09:37:03.415Z,18
2019-05-18T09:38:03.427Z,18.1
2019-05-18T09:39:03.535Z,18.5
2019-05-18T09:40:03.602Z,19.1
2019-05-18T09:41:03.648Z,19.4
2019-05-18T09:42:03.704Z,19.7
2019-05-18T09:43:03.753Z,19.5
2019-05-18T09:44:03.837Z,19.6
2019-05-18T09:45:03.853Z,19.5
2019-05-18T09:46:03.906Z,19.9
2019-05-18T09:47:03.968Z,20.1
2019-05-18T09:48:04.121Z,20.3
2019-05-18T09:49:04.091Z,20.3
2019-05-18T09:50:04.196Z,20.2
2019-05-18T09:51:04.314Z,20
2019-05-18T09:52:04.259Z,19.9
2019-05-18T09:53:04.625Z,19.6
2019-05-18T09:54:04.341Z,19.2
2019-05-18T09:55:04.437Z,18.7
2019-05-18T09:56:04.447Z,18.7
2019-05-18T09:57:04.570Z,18.8
2019-05-18T09:58:04.588Z,19.1
2019-05-18T09:59:04.614Z,19.1
2019-05-18T10:00:04.685Z,19
2019-05-18T10:01:04.752Z,18.9
2019-05-18T10:02:04.844Z,19
2019-05-18T10:03:04.854Z,19.1
2019-05-18T10:04:04.920Z,19.2
2019-05-18T10:05:05.155Z,19.4
2019-05-18T10:06:05.346Z,19.4
2019-05-18T10:07:05.525Z,19.7
2019-05-18T10:08:05.818Z,19.8
2019-05-18T10:09:06.209Z,20.1
2019-05-18T10:10:05.936Z,19.8
2019-05-18T10:11:06.389Z,19.9
2019-05-18T10:12:06.197Z,19.9
2019-05-18T10:13:06.223Z,20
2019-05-18T10:14:06.792Z,20.2
2019-05-18T10:15:06.709Z,20.1
2019-05-18T10:16:07.423Z,20.1
2019-05-18T10:17:05.711Z,20
2019-05-18T10:18:07.545Z,20
2019-05-18T10:19:07.513Z,20.1
2019-05-18T10:20:07.686Z,20.2
2019-05-18T10:21:06.897Z,20
2019-05-18T10:22:07.921Z,20.2
2019-05-18T10:23:12.652Z,20.3
2019-05-18T10:24:06.065Z,20.4
2019-05-18T10:25:07.728Z,20.2
2019-05-18T10:26:07.335Z,20.2
2019-05-18T10:27:08.109Z,20.3
2019-05-18T10:28:06.527Z,20.7
2019-05-18T10:29:07.233Z,20.9
2019-05-18T10:30:06.735Z,20.7
2019-05-18T10:31:06.510Z,20.5
2019-05-18T10:32:06.590Z,20.5
2019-05-18T10:33:06.803Z,20.4
2019-05-18T10:34:06.775Z,20.5
2019-05-18T10:35:06.654Z,20.5
2019-05-18T10:36:06.694Z,20.6
2019-05-18T10:37:06.782Z,20.7
2019-05-18T10:38:06.793Z,20.8
2019-05-18T10:39:06.862Z,20.9
2019-05-18T10:40:06.912Z,21.3
2019-05-18T10:41:06.972Z,21.3
2019-05-18T10:42:07.030Z,21.1
2019-05-18T10:43:07.089Z,20.9
2019-05-18T10:44:07.160Z,20.8
2019-05-18T10:45:07.205Z,20.8
2019-05-18T10:46:07.264Z,35.3
2019-05-18T10:47:07.334Z,21
2019-05-18T10:48:07.373Z,20.8
2019-05-18T10:49:07.429Z,20.8
2019-05-18T10:50:07.465Z,21.1
2019-05-18T10:51:07.606Z,21
2019-05-18T10:52:07.624Z,21.2
2019-05-18T10:53:07.616Z,21.6
2019-05-18T10:54:07.684Z,21.7
2019-05-18T10:55:07.748Z,21.7
2019-05-18T10:56:07.805Z,21.9
2019-05-18T10:57:07.883Z,21.7
2019-05-18T10:58:07.889Z,21.5
2019-05-18T10:59:07.964Z,21
2019-05-18T11:00:08.056Z,20.8
2019-05-18T11:01:08.127Z,20.6
2019-05-18T11:02:08.195Z,20.9
2019-05-18T11:03:08.223Z,21.1
2019-05-18T11:04:08.252Z,21
2019-05-18T11:05:08.340Z,20.9
2019-05-18T11:06:08.425Z,35.2
2019-05-18T11:07:08.507Z,21
2019-05-18T11:08:08.471Z,21
2019-05-18T11:09:08.549Z,20.9
2019-05-18T11:10:08.795Z,21.1
2019-05-18T11:11:08.789Z,21.4
2019-05-18T11:14:08.819Z,21.4
2019-05-18T11:15:08.871Z,21.1
2019-05-18T11:16:08.922Z,21.3
2019-05-18T11:17:09.036Z,21.5
2019-05-18T11:18:09.155Z,21.6
2019-05-18T11:19:09.241Z,21.6
2019-05-18T11:20:09.179Z,21.6
2019-05-18T11:21:09.232Z,21.5
2019-05-18T11:22:09.353Z,21.5
2019-05-18T11:23:09.347Z,21.5
2019-05-18T11:24:09.431Z,35.8
2019-05-18T11:25:09.511Z,21.7
2019-05-18T11:26:09.569Z,21.6
2019-05-18T11:27:09.647Z,21.7
2019-05-18T11:28:09.679Z,21.7
2019-05-18T11:29:09.738Z,21.6
2019-05-18T11:30:10.135Z,21.6
2019-05-18T11:31:09.820Z,21.7
2019-05-18T11:32:09.987Z,21.7
2019-05-18T11:33:09.971Z,21.6
2019-05-18T11:34:10.034Z,21.8
2019-05-18T11:35:10.111Z,36.2
2019-05-18T11:36:10.127Z,22.6
2019-05-18T11:37:10.164Z,22.4
2019-05-18T11:38:10.231Z,22.2
2019-05-18T11:39:10.317Z,22.1
2019-05-18T11:40:10.330Z,22.1
2019-05-18T11:41:10.403Z,21.9
2019-05-18T11:42:10.468Z,28.5
2019-05-18T11:43:10.515Z,28.4
2019-05-18T11:44:11.031Z,28.6
2019-05-18T11:45:10.748Z,21
2019-05-18T11:46:10.713Z,20.8
2019-05-18T11:47:10.802Z,20.6
2019-05-18T11:48:10.838Z,20.4
2019-05-18T11:49:10.878Z,20.4
2019-05-18T11:50:11.158Z,20.4
2019-05-18T11:51:10.988Z,20.5
2019-05-18T11:52:11.073Z,20.5
2019-05-18T11:53:11.098Z,20.6
2019-05-18T11:54:11.203Z,20.8
2019-05-18T11:55:11.233Z,21
2019-05-18T11:56:11.278Z,21.2
2019-05-18T11:57:11.527Z,21
2019-05-18T11:58:11.431Z,21
2019-05-18T11:59:11.496Z,21
2019-05-18T12:00:11.582Z,21
2019-05-18T12:01:11.599Z,20.8
2019-05-18T12:02:11.632Z,21.1
2019-05-18T12:03:11.729Z,21
2019-05-18T12:04:11.765Z,20.8
2019-05-18T12:05:11.968Z,20.6
2019-05-18T12:06:11.896Z,20.5
2019-05-18T12:07:11.940Z,20.4
2019-05-18T12:08:11.990Z,20.4
2019-05-18T12:09:12.119Z,34.7
2019-05-18T12:10:12.132Z,20.3
2019-05-18T12:11:12.221Z,20.3
2019-05-18T12:12:12.247Z,20.5
2019-05-18T12:13:12.297Z,20.5
2019-05-18T12:14:12.347Z,20.4
2019-05-18T12:15:12.438Z,20.4
2019-05-18T12:16:12.534Z,20.4
2019-05-18T12:17:12.565Z,20.5
2019-05-18T12:18:12.601Z,20.8
2019-05-18T12:19:12.651Z,21
2019-05-18T12:20:12.777Z,20.9
2019-05-18T12:21:12.823Z,20.9
2019-05-18T12:22:12.890Z,21
2019-05-18T12:23:12.897Z,21
2019-05-18T12:24:15.664Z,20.9
2019-05-18T12:25:13.023Z,20.8
2019-05-18T12:26:13.133Z,20.5
2019-05-18T12:27:13.153Z,20.5
2019-05-18T12:28:13.227Z,20.7
2019-05-18T12:29:13.277Z,20.5
2019-05-18T12:30:13.354Z,20.4
2019-05-18T12:31:13.449Z,20.4
2019-05-18T12:32:13.481Z,20.3
2019-05-18T12:33:13.558Z,20.3
2019-05-18T12:34:13.617Z,20.5
2019-05-18T12:35:13.670Z,20.7
2019-05-18T12:36:15.531Z,20.7
2019-05-18T12:37:13.760Z,20.6
2019-05-18T12:38:13.825Z,20.3
2019-05-18T12:39:13.925Z,20.2
2019-05-18T12:40:13.938Z,20.3
2019-05-18T12:41:14.002Z,20.3
2019-05-18T12:42:14.072Z,20.1
2019-05-18T12:43:14.118Z,20
2019-05-18T12:44:14.203Z,19.9
2019-05-18T12:45:14.262Z,19.8
2019-05-18T12:46:14.309Z,19.9
2019-05-18T12:47:14.622Z,19.8
2019-05-18T12:48:14.403Z,19.8
2019-05-18T12:49:14.434Z,19.9
2019-05-18T12:50:14.506Z,20
2019-05-18T12:51:14.546Z,19.8
2019-05-18T12:52:14.618Z,19.7
2019-05-18T12:53:17.476Z,19.8
2019-05-18T12:54:26.865Z,20
2019-05-18T12:55:14.814Z,19.9
2019-05-18T12:56:14.829Z,20.1
2019-05-18T12:57:14.897Z,20.1
2019-05-18T12:58:14.964Z,20
2019-05-18T12:59:14.980Z,19.9
2019-05-18T13:00:15.030Z,20
2019-05-18T13:01:15.115Z,20
2019-05-18T13:02:15.172Z,19.7
2019-05-18T13:03:15.320Z,19.6
2019-05-18T13:04:15.356Z,26.8
2019-05-18T13:05:15.307Z,19.5
2019-05-18T13:06:15.455Z,19.4
2019-05-18T13:07:15.534Z,19.4
2019-05-18T13:08:15.596Z,19.5
2019-05-18T13:09:15.565Z,19.5
2019-05-18T13:10:15.618Z,19.4
2019-05-18T13:11:15.770Z,19.5
2019-05-18T13:12:15.721Z,19.4
2019-05-18T13:13:15.785Z,19.2
2019-05-18T13:14:15.989Z,19.1
2019-05-18T13:15:15.947Z,19.1
2019-05-18T13:16:16.019Z,19
2019-05-18T13:17:16.015Z,18.8
2019-05-18T13:18:16.080Z,18.5
2019-05-18T13:19:16.137Z,18.4
2019-05-18T13:20:16.221Z,18.4
2019-05-18T13:21:16.294Z,18.3
2019-05-18T13:22:16.310Z,18.2
2019-05-18T13:23:16.369Z,18
2019-05-18T13:24:16.449Z,17.8
2019-05-18T13:25:16.504Z,17.6
2019-05-18T13:26:16.522Z,17.5
2019-05-18T13:27:16.594Z,17.3
2019-05-18T13:28:16.633Z,17.1